Time,TemperatureF,DewpointF,PressureIn,WindDirection,WindDirectionDegrees,WindSpeedMPH,WindSpeedGustMPH,Humidity,HourlyPrecipIn,Conditions,Clouds,dailyrainin,SoftwareType,DateUTC
2013-05-19 00:11:00,55.0,46.0,-100.00,North,-999,-999.0,-999.0,70,0.00,,,-99.99,,2013-05-19 07:11:00,
2013-05-19 00:21:00,55.0,46.0,-100.00,North,-999,-999.0,-999.0,70,0.00,,,-99.99,,2013-05-19 07:21:00,
2013-05-19 00:32:00,55.0,46.0,-100.00,North,-999,-999.0,-999.0,70,0.00,,,-99.99,,2013-05-19 07:32:00,
2013-05-19 00:41:00,55.0,46.0,-100.00,North,-999,-999.0,-999.0,70,0.00,,,-99.99,,2013-05-19 07:41:00,
2013-05-19 01:12:00,54.0,47.0,-100.00,North,-999,-999.0,-999.0,75,0.00,,,0.00,,2013-05-19 08:12:00,
2013-05-19 01:21:00,54.0,47.0,-100.00,North,-999,-999.0,-999.0,75,0.00,,,0.00,,2013-05-19 08:21:00,
2013-05-19 01:32:00,54.0,47.0,-100.00,North,-999,-999.0,-999.0,75,0.00,,,0.00,,2013-05-19 08:32:00,
2013-05-19 01:41:00,54.0,47.0,-100.00,North,-999,-999.0,-999.0,75,0.00,,,0.00,,2013-05-19 08:41:00,
2013-05-19 02:11:00,54.0,47.0,-100.00,North,-999,-999.0,-999.0,77,0.00,,,0.00,,2013-05-19 09:11:00,
2013-05-19 02:21:00,54.0,47.0,-100.00,North,-999,-999.0,-999.0,77,0.00,,,0.00,,2013-05-19 09:21:00,
2013-05-19 02:32:00,54.0,47.0,-100.00,North,-999,-999.0,-999.0,77,0.00,,,0.00,,2013-05-19 09:32:00,
2013-05-19 02:42:00,54.0,47.0,-100.00,North,-999,-999.0,-999.0,77,0.00,,,0.00,,2013-05-19 09:42:00,
2013-05-19 03:12:00,54.0,47.0,-100.00,North,-999,-999.0,-999.0,76,0.00,,,0.00,,2013-05-19 10:12:00,
2013-05-19 03:22:00,54.0,47.0,-100.00,North,-999,-999.0,-999.0,76,0.00,,,0.00,,2013-05-19 10:22:00,
2013-05-19 03:32:00,54.0,47.0,-100.00,North,-999,-999.0,-999.0,76,0.00,,,0.00,,2013-05-19 10:32:00,
2013-05-19 03:42:00,54.0,47.0,-100.00,North,-999,-999.0,-999.0,76,0.00,,,0.00,,2013-05-19 10:42:00,
2013-05-19 04:11:00,53.0,47.0,-100.00,North,-999,-999.0,-999.0,79,0.00,,,0.00,,2013-05-19 11:11:00,
2013-05-19 04:21:00,53.0,47.0,-100.00,North,-999,-999.0,-999.0,79,0.00,,,0.00,,2013-05-19 11:21:00,
2013-05-19 04:32:00,53.0,47.0,-100.00,North,-999,-999.0,-999.0,79,0.00,,,0.00,,2013-05-19 11:32:00,
2013-05-19 04:42:00,53.0,47.0,-100.00,North,-999,-999.0,-999.0,79,0.00,,,0.00,,2013-05-19 11:42:00,
2013-05-19 05:11:00,53.0,46.0,-100.00,North,-999,-999.0,-999.0,79,0.00,,,0.00,,2013-05-19 12:11:00,
2013-05-19 05:21:00,53.0,46.0,-100.00,North,-999,-999.0,-999.0,79,0.00,,,0.00,,2013-05-19 12:21:00,
2013-05-19 05:31:00,53.0,46.0,-100.00,North,-999,-999.0,-999.0,79,0.00,,,0.00,,2013-05-19 12:31:00,
2013-05-19 05:41:00,53.0,46.0,-100.00,North,-999,-999.0,-999.0,79,0.00,,,0.00,,2013-05-19 12:41:00,
2013-05-19 06:11:00,52.0,46.0,-100.00,North,-999,-999.0,-999.0,79,0.00,,,0.00,,2013-05-19 13:11:00,
2013-05-19 06:21:00,52.0,46.0,-100.00,North,-999,-999.0,-999.0,79,0.00,,,0.00,,2013-05-19 13:21:00,
2013-05-19 06:31:00,52.0,46.0,-100.00,North,-999,-999.0,-999.0,79,0.00,,,0.00,,2013-05-19 13:31:00,
2013-05-19 06:42:00,52.0,46.0,-100.00,North,-999,-999.0,-999.0,79,0.00,,,0.00,,2013-05-19 13:42:00,
2013-05-19 07:11:00,53.0,46.0,-100.00,North,-999,-999.0,-999.0,78,0.00,,,0.00,,2013-05-19 14:11:00,
2013-05-19 07:21:00,53.0,46.0,-100.00,North,-999,-999.0,-999.0,78,0.00,,,0.00,,2013-05-19 14:21:00,
2013-05-19 07:32:00,53.0,46.0,-100.00,North,-999,-999.0,-999.0,78,0.00,,,0.00,,2013-05-19 14:32:00,
2013-05-19 07:41:00,53.0,46.0,-100.00,North,-999,-999.0,-999.0,78,0.00,,,0.00,,2013-05-19 14:41:00,
2013-05-19 07:43:00,56.0,48.0,-100.00,North,-999,-999.0,-999.0,74,0.00,,,0.00,,2013-05-19 14:43:00,
2013-05-19 08:11:00,56.0,48.0,-100.00,North,-999,-999.0,-999.0,74,0.00,,,0.00,,2013-05-19 15:11:00,
2013-05-19 08:21:00,56.0,48.0,-100.00,North,-999,-999.0,-999.0,74,0.00,,,0.00,,2013-05-19 15:21:00,
2013-05-19 08:33:00,56.0,48.0,-100.00,North,-999,-999.0,-999.0,74,0.00,,,0.00,,2013-05-19 15:33:00,
2013-05-19 09:12:00,60.0,49.0,-100.00,North,-999,-999.0,-999.0,66,0.00,,,0.00,,2013-05-19 16:12:00,
2013-05-19 09:23:00,60.0,49.0,-100.00,North,-999,-999.0,-999.0,66,0.00,,,0.00,,2013-05-19 16:23:00,
2013-05-19 09:32:00,60.0,49.0,-100.00,North,-999,-999.0,-999.0,66,0.00,,,0.00,,2013-05-19 16:32:00,
2013-05-19 09:42:00,60.0,49.0,-100.00,North,-999,-999.0,-999.0,66,0.00,,,0.00,,2013-05-19 16:42:00,
2013-05-19 10:12:00,63.0,47.0,-100.00,North,-999,-999.0,-999.0,55,0.00,,,0.00,,2013-05-19 17:12:00,
2013-05-19 10:22:00,63.0,47.0,-100.00,North,-999,-999.0,-999.0,55,0.00,,,0.00,,2013-05-19 17:22:00,
2013-05-19 10:32:00,63.0,47.0,-100.00,North,-999,-999.0,-999.0,55,0.00,,,0.00,,2013-05-19 17:32:00,
2013-05-19 10:42:00,63.0,47.0,-100.00,North,-999,-999.0,-999.0,55,0.00,,,0.00,,2013-05-19 17:42:00,
2013-05-19 11:12:00,67.0,44.0,-100.00,North,-999,-999.0,-999.0,44,0.00,,,0.00,,2013-05-19 18:12:00,
2013-05-19 11:42:00,67.0,44.0,-100.00,North,-999,-999.0,-999.0,44,0.00,,,0.00,,2013-05-19 18:42:00,
2013-05-19 12:11:00,69.0,44.0,-100.00,North,-999,-999.0,-999.0,40,0.00,,,0.00,,2013-05-19 19:11:00,
2013-05-19 13:11:00,69.0,44.0,-100.00,North,-999,-999.0,-999.0,41,-99.99,,,0.00,,2013-05-19 20:11:00,
2013-05-19 13:21:00,69.0,44.0,-100.00,North,-999,-999.0,-999.0,41,-99.99,,,0.00,,2013-05-19 20:21:00,
2013-05-19 13:31:00,69.0,44.0,-100.00,North,-999,-999.0,-999.0,41,-99.99,,,0.00,,2013-05-19 20:31:00,
2013-05-19 13:41:00,69.0,44.0,-100.00,North,-999,-999.0,-999.0,41,-99.99,,,0.00,,2013-05-19 20:41:00,
2013-05-19 13:43:00,66.0,46.0,-100.00,North,-999,-999.0,-999.0,49,-99.99,,,0.00,,2013-05-19 20:43:00,
2013-05-19 14:11:00,66.0,46.0,-100.00,North,-999,-999.0,-999.0,49,-99.99,,,0.00,,2013-05-19 21:11:00,
2013-05-19 14:22:00,66.0,46.0,-100.00,North,-999,-999.0,-999.0,49,-99.99,,,0.00,,2013-05-19 21:22:00,
2013-05-19 14:32:00,66.0,46.0,-100.00,North,-999,-999.0,-999.0,49,-99.99,,,0.00,,2013-05-19 21:32:00,
2013-05-19 15:12:00,65.0,47.0,-100.00,North,-999,-999.0,-999.0,52,0.00,,,0.00,,2013-05-19 22:12:00,
2013-05-19 15:23:00,65.0,47.0,-100.00,North,-999,-999.0,-999.0,52,0.00,,,0.00,,2013-05-19 22:23:00,
2013-05-19 15:33:00,65.0,47.0,-100.00,North,-999,-999.0,-999.0,52,0.00,,,0.00,,2013-05-19 22:33:00,
2013-05-19 15:42:00,65.0,47.0,-100.00,North,-999,-999.0,-999.0,52,0.00,,,0.00,,2013-05-19 22:42:00,
2013-05-19 16:11:00,67.0,46.0,-100.00,North,-999,-999.0,-999.0,47,0.00,,,0.00,,2013-05-19 23:11:00,
2013-05-19 16:21:00,67.0,46.0,-100.00,North,-999,-999.0,-999.0,47,0.00,,,0.00,,2013-05-19 23:21:00,
2013-05-19 16:32:00,67.0,46.0,-100.00,North,-999,-999.0,-999.0,47,0.00,,,0.00,,2013-05-19 23:32:00,
2013-05-19 16:42:00,67.0,46.0,-100.00,North,-999,-999.0,-999.0,47,0.00,,,0.00,,2013-05-19 23:42:00,
2013-05-19 17:11:00,65.0,46.0,-100.00,North,-999,-999.0,-999.0,51,0.00,,,0.00,,2013-05-20 00:11:00,
2013-05-19 17:21:00,65.0,46.0,-100.00,North,-999,-999.0,-999.0,51,0.00,,,0.00,,2013-05-20 00:21:00,
2013-05-19 17:32:00,65.0,46.0,-100.00,North,-999,-999.0,-999.0,51,0.00,,,0.00,,2013-05-20 00:32:00,
2013-05-19 17:41:00,65.0,46.0,-100.00,North,-999,-999.0,-999.0,51,0.00,,,0.00,,2013-05-20 00:41:00,
2013-05-19 18:11:00,63.0,47.0,-100.00,North,-999,-999.0,-999.0,56,0.00,,,0.00,,2013-05-20 01:11:00,
2013-05-19 18:21:00,63.0,47.0,-100.00,North,-999,-999.0,-999.0,56,0.00,,,0.00,,2013-05-20 01:21:00,
2013-05-19 18:31:00,63.0,47.0,-100.00,North,-999,-999.0,-999.0,56,0.00,,,0.00,,2013-05-20 01:31:00,
2013-05-19 18:42:00,63.0,47.0,-100.00,North,-999,-999.0,-999.0,56,0.00,,,0.00,,2013-05-20 01:42:00,
2013-05-19 19:11:00,62.0,47.0,-100.00,North,-999,-999.0,-999.0,57,0.00,,,0.00,,2013-05-20 02:11:00,
2013-05-19 19:21:00,62.0,47.0,-100.00,North,-999,-999.0,-999.0,57,0.00,,,0.00,,2013-05-20 02:21:00,
2013-05-19 19:31:00,62.0,47.0,-100.00,North,-999,-999.0,-999.0,57,0.00,,,0.00,,2013-05-20 02:31:00,
2013-05-19 19:42:00,62.0,47.0,-100.00,North,-999,-999.0,-999.0,57,0.00,,,0.00,,2013-05-20 02:42:00,
2013-05-19 20:11:00,59.0,47.0,-100.00,North,-999,-999.0,-999.0,66,0.00,,,0.00,,2013-05-20 03:11:00,
2013-05-19 20:21:00,59.0,47.0,-100.00,North,-999,-999.0,-999.0,66,0.00,,,0.00,,2013-05-20 03:21:00,
2013-05-19 20:33:00,59.0,47.0,-100.00,North,-999,-999.0,-999.0,66,0.00,,,0.00,,2013-05-20 03:33:00,
2013-05-19 20:42:00,59.0,47.0,-100.00,North,-999,-999.0,-999.0,66,0.00,,,0.00,,2013-05-20 03:42:00,
2013-05-19 21:12:00,57.0,47.0,-100.00,North,-999,-999.0,-999.0,71,0.00,,,0.00,,2013-05-20 04:12:00,
2013-05-19 21:23:00,57.0,47.0,-100.00,North,-999,-999.0,-999.0,71,0.00,,,0.00,,2013-05-20 04:23:00,
2013-05-19 21:33:00,57.0,47.0,-100.00,North,-999,-999.0,-999.0,71,0.00,,,0.00,,2013-05-20 04:33:00,
2013-05-19 21:42:00,57.0,47.0,-100.00,North,-999,-999.0,-999.0,71,0.00,,,0.00,,2013-05-20 04:42:00,
2013-05-19 22:12:00,56.0,47.0,-100.00,North,-999,-999.0,-999.0,71,0.00,,,0.00,,2013-05-20 05:12:00,
2013-05-19 22:21:00,56.0,47.0,-100.00,North,-999,-999.0,-999.0,71,0.00,,,0.00,,2013-05-20 05:21:00,
2013-05-19 22:32:00,56.0,47.0,-100.00,North,-999,-999.0,-999.0,71,0.00,,,0.00,,2013-05-20 05:32:00,
2013-05-19 22:42:00,56.0,47.0,-100.00,North,-999,-999.0,-999.0,71,0.00,,,0.00,,2013-05-20 05:42:00,
2013-05-19 23:11:00,56.0,47.0,-100.00,North,-999,-999.0,-999.0,73,0.00,,,0.00,,2013-05-20 06:11:00,
2013-05-19 23:21:00,56.0,47.0,-100.00,North,-999,-999.0,-999.0,73,0.00,,,0.00,,2013-05-20 06:21:00,
2013-05-19 23:32:00,56.0,47.0,-100.00,North,-999,-999.0,-999.0,73,0.00,,,0.00,,2013-05-20 06:32:00,
2013-05-19 23:41:00,56.0,47.0,-100.00,North,-999,-999.0,-999.0,73,0.00,,,0.00,,2013-05-20 06:41:00,